createdAt,value
2022-10-14T00:01:07.590Z,100.00
2022-10-14T00:03:36.149Z,100.00
2022-10-14T00:06:07.171Z,100.00
2022-10-14T00:08:35.215Z,100.00
2022-10-14T00:11:09.187Z,100.00
2022-10-14T00:13:37.962Z,100.00
2022-10-14T00:16:06.858Z,100.00
2022-10-14T00:18:34.594Z,100.00
2022-10-14T00:21:03.353Z,100.00
2022-10-14T00:23:32.631Z,100.00
2022-10-14T00:26:00.352Z,100.00
2022-10-14T00:28:31.500Z,100.00
2022-10-14T00:31:02.020Z,100.00
2022-10-14T00:33:30.264Z,100.00
2022-10-14T00:36:04.854Z,100.00
2022-10-14T00:38:37.335Z,100.00
2022-10-14T00:41:06.115Z,100.00
2022-10-14T00:43:57.813Z,100.00
2022-10-14T00:46:26.102Z,100.00
2022-10-14T00:49:02.621Z,100.00
2022-10-14T00:51:30.444Z,100.00
2022-10-14T00:53:59.584Z,100.00
2022-10-14T00:56:30.841Z,100.00
2022-10-14T00:59:00.547Z,100.00
2022-10-14T01:01:28.278Z,100.00
2022-10-14T01:03:56.047Z,100.00
2022-10-14T01:06:37.213Z,100.00
2022-10-14T01:09:15.259Z,100.00
2022-10-14T01:12:09.803Z,100.00
2022-10-14T01:14:48.019Z,100.00
2022-10-14T01:17:27.400Z,100.00
2022-10-14T01:20:24.275Z,100.00
2022-10-14T01:23:02.383Z,100.00
2022-10-14T01:25:36.282Z,100.00
2022-10-14T01:28:22.684Z,100.00
2022-10-14T01:30:58.291Z,100.00
2022-10-14T01:33:29.383Z,100.00
2022-10-14T01:36:04.119Z,100.00
2022-10-14T01:38:38.858Z,100.00
2022-10-14T01:41:12.800Z,100.00
2022-10-14T01:43:42.017Z,100.00
2022-10-14T01:46:13.064Z,100.00
2022-10-14T01:48:46.981Z,100.00
2022-10-14T01:51:20.978Z,100.00
2022-10-14T01:53:56.979Z,100.00
2022-10-14T01:56:27.133Z,100.00
2022-10-14T01:58:55.926Z,100.00
2022-10-14T02:01:25.486Z,100.00
2022-10-14T02:03:53.410Z,100.00
2022-10-14T02:06:27.978Z,100.00
2022-10-14T02:09:13.119Z,100.00
2022-10-14T02:11:58.987Z,100.00
2022-10-14T02:14:36.617Z,100.00
2022-10-14T02:17:10.071Z,100.00
2022-10-14T02:19:45.092Z,100.00
2022-10-14T02:22:21.548Z,100.00
2022-10-14T02:24:55.174Z,100.00
2022-10-14T02:27:26.130Z,100.00
2022-10-14T02:29:57.992Z,100.00
2022-10-14T02:32:29.150Z,100.00
2022-10-14T02:34:59.560Z,100.00
2022-10-14T02:37:30.568Z,100.00
2022-10-14T02:40:06.151Z,100.00
2022-10-14T02:42:34.384Z,100.00
2022-10-14T02:45:06.442Z,100.00
2022-10-14T02:47:35.607Z,100.00
2022-10-14T02:50:03.485Z,100.00
2022-10-14T02:52:31.333Z,100.00
2022-10-14T02:54:59.180Z,100.00
2022-10-14T02:57:27.116Z,100.00
2022-10-14T02:59:57.891Z,100.00
2022-10-14T03:02:26.149Z,100.00
2022-10-14T03:04:55.299Z,100.00
2022-10-14T03:07:23.886Z,100.00
2022-10-14T03:09:53.043Z,100.00
2022-10-14T03:12:21.140Z,100.00
2022-10-14T03:14:50.226Z,100.00
2022-10-14T03:17:19.300Z,100.00
2022-10-14T03:19:49.334Z,100.00
2022-10-14T03:22:18.622Z,100.00
2022-10-14T03:24:46.542Z,100.00
2022-10-14T03:27:36.361Z,100.00
2022-10-14T03:30:09.753Z,100.00
2022-10-14T03:32:43.819Z,100.00
2022-10-14T03:35:43.466Z,100.00
2022-10-14T03:38:15.762Z,100.00
2022-10-14T03:40:43.885Z,100.00
2022-10-14T03:43:13.708Z,100.00
2022-10-14T03:45:51.985Z,100.00
2022-10-14T03:48:22.623Z,100.00
2022-10-14T03:50:50.425Z,100.00
2022-10-14T03:53:21.722Z,100.00
2022-10-14T03:55:50.422Z,100.00
2022-10-14T03:58:18.288Z,100.00
2022-10-14T04:00:51.113Z,100.00
2022-10-14T04:03:31.883Z,100.00
2022-10-14T04:06:01.099Z,100.00
2022-10-14T04:08:31.841Z,100.00
2022-10-14T04:11:07.127Z,100.00
2022-10-14T04:13:38.488Z,100.00
2022-10-14T04:16:07.063Z,100.00
2022-10-14T04:18:39.408Z,100.00
2022-10-14T04:21:13.147Z,100.00
2022-10-14T04:23:44.728Z,100.00
2022-10-14T04:26:17.151Z,100.00
2022-10-14T04:28:47.104Z,100.00
2022-10-14T04:31:25.946Z,100.00
2022-10-14T04:34:00.739Z,100.00
2022-10-14T04:36:34.466Z,100.00
2022-10-14T04:39:06.020Z,100.00
2022-10-14T04:41:33.759Z,100.00
2022-10-14T04:44:02.662Z,100.00
2022-10-14T04:46:35.724Z,100.00
2022-10-14T04:49:03.655Z,100.00
2022-10-14T04:51:36.705Z,100.00
2022-10-14T04:54:18.274Z,100.00
2022-10-14T04:56:54.802Z,100.00
2022-10-14T04:59:22.512Z,100.00
2022-10-14T05:02:08.700Z,100.00
2022-10-14T05:04:41.827Z,100.00
2022-10-14T05:07:10.306Z,100.00
2022-10-14T05:09:40.149Z,100.00
2022-10-14T05:12:19.884Z,100.00
2022-10-14T05:14:53.251Z,100.00
2022-10-14T05:17:27.226Z,100.00
2022-10-14T05:19:54.998Z,100.00
2022-10-14T05:22:25.236Z,100.00
2022-10-14T05:24:54.475Z,100.00
2022-10-14T05:27:22.302Z,100.00
2022-10-14T05:29:51.103Z,100.00
2022-10-14T05:32:19.185Z,100.00
2022-10-14T05:34:49.989Z,100.00
2022-10-14T05:37:25.809Z,100.00
2022-10-14T05:39:57.131Z,100.00
2022-10-14T05:42:27.277Z,100.00
2022-10-14T05:44:58.964Z,100.00
2022-10-14T05:47:29.041Z,100.00
2022-10-14T05:50:05.670Z,100.00
2022-10-14T05:52:35.095Z,100.00
2022-10-14T05:55:13.444Z,100.00
2022-10-14T05:57:44.259Z,100.00
2022-10-14T06:00:19.668Z,100.00
2022-10-14T06:02:55.172Z,100.00
2022-10-14T06:05:22.932Z,100.00
2022-10-14T06:07:50.663Z,100.00
2022-10-14T06:10:20.007Z,100.00
2022-10-14T06:12:47.790Z,100.00
2022-10-14T06:15:15.672Z,100.00
2022-10-14T06:17:43.440Z,100.00
2022-10-14T06:20:12.067Z,100.00
2022-10-14T06:22:39.836Z,100.00
2022-10-14T06:25:08.327Z,100.00
2022-10-14T06:27:37.515Z,100.00
2022-10-14T06:30:06.198Z,100.00
2022-10-14T06:32:34.017Z,100.00
2022-10-14T06:35:01.759Z,100.00
2022-10-14T06:37:29.459Z,100.00
2022-10-14T06:39:57.139Z,100.00
2022-10-14T06:42:25.260Z,100.00
2022-10-14T06:44:54.499Z,100.00
2022-10-14T06:47:22.363Z,100.00
2022-10-14T06:49:50.075Z,100.00
2022-10-14T06:52:17.824Z,100.00
2022-10-14T06:54:48.300Z,100.00
2022-10-14T06:57:16.865Z,100.00
2022-10-14T06:59:44.555Z,100.00
2022-10-14T07:02:13.744Z,100.00
2022-10-14T07:04:41.581Z,100.00
2022-10-14T07:07:09.637Z,100.00
2022-10-14T07:09:37.532Z,100.00
2022-10-14T07:12:05.386Z,100.00
2022-10-14T07:14:33.088Z,100.00
2022-10-14T07:17:01.228Z,100.00
2022-10-14T07:19:31.859Z,100.00
2022-10-14T07:21:59.550Z,100.00
2022-10-14T07:24:27.515Z,100.00
2022-10-14T07:26:55.276Z,100.00
2022-10-14T07:29:23.003Z,100.00
2022-10-14T07:31:50.719Z,100.00
2022-10-14T07:34:18.488Z,100.00
2022-10-14T07:36:47.718Z,100.00
2022-10-14T07:39:15.545Z,100.00
2022-10-14T07:41:43.228Z,100.00
2022-10-14T07:44:13.957Z,100.00
2022-10-14T07:46:45.263Z,100.00
2022-10-14T07:49:15.338Z,100.00
2022-10-14T07:51:43.824Z,100.00
2022-10-14T07:54:16.417Z,100.00
2022-10-14T07:56:45.439Z,100.00
2022-10-14T07:59:13.556Z,100.00
2022-10-14T08:01:42.791Z,100.00
2022-10-14T08:04:12.390Z,100.00
2022-10-14T08:06:40.183Z,100.00
2022-10-14T08:09:09.297Z,100.00
2022-10-14T08:11:38.771Z,100.00
2022-10-14T08:14:07.420Z,100.00
2022-10-14T08:16:36.575Z,100.00
2022-10-14T08:19:12.641Z,100.00
2022-10-14T08:21:43.045Z,100.00
2022-10-14T08:24:11.391Z,100.00
2022-10-14T08:26:42.113Z,100.00
2022-10-14T08:29:11.976Z,100.00
2022-10-14T08:31:39.838Z,100.00
2022-10-14T08:34:07.633Z,100.00
2022-10-14T08:36:35.375Z,100.00
2022-10-14T08:39:03.276Z,100.00
2022-10-14T08:41:54.863Z,100.00
2022-10-14T08:44:26.437Z,100.00
2022-10-14T08:46:58.304Z,100.00
2022-10-14T08:49:31.568Z,100.00
2022-10-14T08:52:02.708Z,100.00
2022-10-14T08:54:39.303Z,100.00
2022-10-14T08:57:15.435Z,100.00
2022-10-14T08:59:43.522Z,100.00
2022-10-14T09:02:21.367Z,100.00
2022-10-14T09:04:49.336Z,100.00
2022-10-14T09:07:20.123Z,100.00
2022-10-14T09:09:51.296Z,100.00
2022-10-14T09:12:25.484Z,100.00
2022-10-14T09:15:03.607Z,100.00
2022-10-14T09:17:37.951Z,100.00
2022-10-14T09:20:17.347Z,100.00
2022-10-14T09:22:46.429Z,100.00
2022-10-14T09:25:16.477Z,100.00
2022-10-14T09:30:19.085Z,100.00
2022-10-14T09:32:50.621Z,100.00
2022-10-14T09:35:24.992Z,100.00
2022-10-14T09:37:53.752Z,100.00
2022-10-14T09:40:29.600Z,100.00
2022-10-14T09:43:02.936Z,100.00
2022-10-14T09:45:46.870Z,100.00
2022-10-14T09:48:16.947Z,100.00
2022-10-14T09:50:51.500Z,100.00
2022-10-14T09:53:28.404Z,100.00
2022-10-14T09:55:58.424Z,100.00
2022-10-14T09:58:33.026Z,99.46
2022-10-14T10:01:02.651Z,100.00
2022-10-14T10:03:33.538Z,99.17
2022-10-14T10:06:04.838Z,99.74
2022-10-14T10:08:33.636Z,97.12
2022-10-14T10:11:06.936Z,99.32
2022-10-14T10:13:40.459Z,95.85
2022-10-14T10:16:20.099Z,97.43
2022-10-14T10:18:48.064Z,98.43
2022-10-14T10:21:21.037Z,99.03
2022-10-14T10:23:54.788Z,98.99
2022-10-14T10:26:27.036Z,97.27
2022-10-14T10:28:58.122Z,98.01
2022-10-14T10:34:34.384Z,98.45
2022-10-14T10:37:08.370Z,95.11
2022-10-14T10:39:45.712Z,95.39
2022-10-14T10:42:24.125Z,94.03
2022-10-14T10:45:07.388Z,96.77
2022-10-14T10:47:45.627Z,96.90
2022-10-14T10:50:25.125Z,97.35
2022-10-14T10:53:11.404Z,98.18
2022-10-14T10:58:37.820Z,100.00
2022-10-14T11:01:21.400Z,100.00
2022-10-14T11:04:00.329Z,100.00
2022-10-14T11:06:53.866Z,100.00
2022-10-14T11:09:49.216Z,100.00
2022-10-14T11:12:23.916Z,100.00
2022-10-14T11:17:54.486Z,100.00
2022-10-14T11:20:34.411Z,100.00
2022-10-14T11:23:17.680Z,100.00
2022-10-14T11:25:56.666Z,100.00
2022-10-14T11:28:31.225Z,100.00
2022-10-14T11:31:07.746Z,100.00
2022-10-14T11:33:55.932Z,100.00
2022-10-14T11:36:35.233Z,100.00
2022-10-14T11:39:35.513Z,100.00
2022-10-14T11:42:18.983Z,100.00
2022-10-14T11:44:49.457Z,100.00
2022-10-14T11:47:25.301Z,100.00
2022-10-14T11:50:02.119Z,100.00
2022-10-14T11:52:33.725Z,100.00
2022-10-14T11:55:07.731Z,100.00
2022-10-14T11:57:42.983Z,100.00
2022-10-14T12:00:28.069Z,100.00
2022-10-14T12:03:03.697Z,100.00
2022-10-14T12:05:39.876Z,100.00
2022-10-14T12:08:17.427Z,100.00
2022-10-14T12:10:48.738Z,100.00
2022-10-14T12:13:20.727Z,99.22
2022-10-14T12:15:51.435Z,100.00
2022-10-14T12:18:20.344Z,100.00
2022-10-14T12:20:56.507Z,100.00
2022-10-14T12:23:33.741Z,100.00
2022-10-14T12:26:07.784Z,100.00
2022-10-14T12:28:38.473Z,100.00
2022-10-14T12:31:25.786Z,100.00
2022-10-14T12:34:18.760Z,100.00
2022-10-14T12:36:50.486Z,100.00
2022-10-14T12:39:32.740Z,100.00
2022-10-14T12:42:04.088Z,100.00
2022-10-14T12:44:42.715Z,100.00
2022-10-14T12:47:19.681Z,100.00
2022-10-14T12:49:50.944Z,100.00
2022-10-14T12:52:24.834Z,100.00
2022-10-14T12:57:31.700Z,100.00
2022-10-14T13:00:02.587Z,100.00
2022-10-14T13:02:33.616Z,100.00
2022-10-14T13:05:04.144Z,100.00
2022-10-14T13:07:46.388Z,100.00
2022-10-14T13:10:52.440Z,100.00
2022-10-14T13:13:50.155Z,100.00
2022-10-14T13:17:03.650Z,100.00
2022-10-14T13:19:47.766Z,100.00
2022-10-14T13:22:44.997Z,100.00
2022-10-14T13:25:21.295Z,100.00
2022-10-14T13:27:56.410Z,100.00
2022-10-14T13:30:34.153Z,100.00
2022-10-14T13:33:12.751Z,100.00
2022-10-14T13:35:54.330Z,100.00
2022-10-14T13:38:24.759Z,100.00
2022-10-14T13:40:54.986Z,100.00
2022-10-14T13:43:27.057Z,100.00
2022-10-14T13:46:04.286Z,100.00
2022-10-14T13:48:35.665Z,100.00
2022-10-14T13:51:36.192Z,100.00
2022-10-14T13:54:18.003Z,100.00
2022-10-14T13:57:12.634Z,100.00
2022-10-14T14:00:19.536Z,100.00
2022-10-14T14:02:40.976Z,100.00
2022-10-14T14:05:17.147Z,100.00
2022-10-14T14:10:39.236Z,100.00
2022-10-14T14:13:14.967Z,100.00
2022-10-14T14:15:43.440Z,100.00
2022-10-14T14:18:33.833Z,100.00
2022-10-14T14:21:13.153Z,100.00
2022-10-14T14:23:50.514Z,100.00
2022-10-14T14:26:20.734Z,100.00
2022-10-14T14:28:50.049Z,100.00
2022-10-14T14:31:20.755Z,100.00
2022-10-14T14:33:48.746Z,100.00
2022-10-14T14:36:27.710Z,100.00
2022-10-14T14:39:02.976Z,100.00
2022-10-14T14:41:33.703Z,100.00
2022-10-14T14:44:24.448Z,100.00
2022-10-14T14:46:53.696Z,100.00
2022-10-14T14:49:25.533Z,100.00
2022-10-14T14:51:53.806Z,100.00
2022-10-14T14:54:23.558Z,100.00
2022-10-14T14:56:55.993Z,100.00
2022-10-14T14:59:29.657Z,100.00
2022-10-14T15:04:29.206Z,100.00
2022-10-14T15:07:00.447Z,100.00
2022-10-14T15:09:37.707Z,100.00
2022-10-14T15:12:15.577Z,100.00
2022-10-14T15:14:46.340Z,100.00
2022-10-14T15:17:30.157Z,100.00
2022-10-14T15:20:00.157Z,100.00
2022-10-14T15:22:38.251Z,100.00
2022-10-14T15:25:09.379Z,100.00
2022-10-14T15:27:53.638Z,100.00
2022-10-14T15:30:35.663Z,100.00
2022-10-14T15:33:17.147Z,100.00
2022-10-14T15:35:46.418Z,100.00
2022-10-14T15:38:16.466Z,100.00
2022-10-14T15:40:45.143Z,100.00
2022-10-14T15:43:17.688Z,100.00
2022-10-14T15:46:10.540Z,100.00
2022-10-14T15:48:40.356Z,100.00
2022-10-14T15:51:08.116Z,100.00
2022-10-14T15:53:36.530Z,100.00
2022-10-14T15:56:06.028Z,100.00
2022-10-14T15:58:35.091Z,100.00
2022-10-14T16:01:04.903Z,100.00
2022-10-14T16:03:36.055Z,100.00
2022-10-14T16:06:10.961Z,100.00
2022-10-14T16:08:39.523Z,100.00
2022-10-14T16:11:21.752Z,100.00
2022-10-14T16:13:50.805Z,100.00
2022-10-14T16:16:23.136Z,100.00
2022-10-14T16:18:50.879Z,100.00
2022-10-14T16:21:18.600Z,100.00
2022-10-14T16:23:46.296Z,100.00
2022-10-14T16:26:14.365Z,100.00
2022-10-14T16:28:42.400Z,100.00
2022-10-14T16:31:13.835Z,100.00
2022-10-14T16:33:44.792Z,100.00
2022-10-14T16:36:16.195Z,100.00
2022-10-14T16:38:44.084Z,100.00
2022-10-14T16:41:12.862Z,100.00
2022-10-14T16:43:40.567Z,100.00
2022-10-14T16:46:11.700Z,100.00
2022-10-14T16:48:43.826Z,100.00
2022-10-14T16:51:11.581Z,100.00
2022-10-14T16:53:43.822Z,100.00
2022-10-14T16:56:35.516Z,100.00
2022-10-14T16:59:03.792Z,100.00
2022-10-14T17:01:32.180Z,100.00
2022-10-14T17:04:01.362Z,100.00
2022-10-14T17:06:29.198Z,100.00
2022-10-14T17:08:57.027Z,100.00
2022-10-14T17:11:27.246Z,100.00
2022-10-14T17:13:57.354Z,100.00
2022-10-14T17:16:26.276Z,100.00
2022-10-14T17:18:53.999Z,100.00
2022-10-14T17:21:24.253Z,100.00
2022-10-14T17:23:51.908Z,100.00
2022-10-14T17:26:20.486Z,100.00
2022-10-14T17:28:49.304Z,100.00
2022-10-14T17:31:20.058Z,100.00
2022-10-14T17:33:48.156Z,100.00
2022-10-14T17:36:19.534Z,100.00
2022-10-14T17:38:50.697Z,100.00
2022-10-14T17:41:19.365Z,100.00
2022-10-14T17:43:49.444Z,100.00
2022-10-14T17:46:19.084Z,100.00
2022-10-14T17:48:50.391Z,100.00
2022-10-14T17:51:20.247Z,100.00
2022-10-14T17:53:49.474Z,100.00
2022-10-14T17:56:17.130Z,100.00
2022-10-14T17:58:44.821Z,100.00
2022-10-14T18:01:14.968Z,100.00
2022-10-14T18:03:44.703Z,100.00
2022-10-14T18:06:14.329Z,100.00
2022-10-14T18:08:42.800Z,100.00
2022-10-14T18:11:12.989Z,100.00
2022-10-14T18:13:41.037Z,100.00
2022-10-14T18:16:11.911Z,100.00
2022-10-14T18:18:39.690Z,100.00
2022-10-14T18:21:08.017Z,100.00
2022-10-14T18:23:39.001Z,100.00
2022-10-14T18:26:12.577Z,100.00
2022-10-14T18:28:45.055Z,100.00
2022-10-14T18:31:15.236Z,100.00
2022-10-14T18:33:44.788Z,100.00
2022-10-14T18:36:17.093Z,100.00
2022-10-14T18:38:50.899Z,100.00
2022-10-14T18:41:18.802Z,100.00
2022-10-14T18:43:48.300Z,100.00
2022-10-14T18:46:18.026Z,100.00
2022-10-14T18:48:48.020Z,100.00
2022-10-14T18:51:17.842Z,100.00
2022-10-14T18:53:47.393Z,100.00
2022-10-14T18:56:17.939Z,100.00
2022-10-14T18:58:48.495Z,100.00
2022-10-14T19:01:17.443Z,100.00
2022-10-14T19:03:47.209Z,100.00
2022-10-14T19:06:15.978Z,100.00
2022-10-14T19:08:45.483Z,100.00
2022-10-14T19:11:17.911Z,100.00
2022-10-14T19:13:47.440Z,100.00
2022-10-14T19:16:17.735Z,100.00
2022-10-14T19:18:45.543Z,100.00
2022-10-14T19:21:15.247Z,100.00
2022-10-14T19:23:45.035Z,100.00
2022-10-14T19:28:43.157Z,100.00
2022-10-14T19:31:14.079Z,100.00
2022-10-14T19:33:43.311Z,100.00
2022-10-14T19:36:12.240Z,100.00
2022-10-14T19:38:40.543Z,100.00
2022-10-14T19:41:09.496Z,100.00
2022-10-14T19:43:37.176Z,100.00
2022-10-14T19:46:07.930Z,100.00
2022-10-14T19:48:37.123Z,100.00
2022-10-14T19:51:09.120Z,100.00
2022-10-14T19:53:37.351Z,100.00
2022-10-14T19:56:11.197Z,100.00
2022-10-14T19:58:42.363Z,100.00
2022-10-14T20:01:14.812Z,100.00
2022-10-14T20:03:44.309Z,100.00
2022-10-14T20:06:14.279Z,100.00
2022-10-14T20:08:42.875Z,100.00
2022-10-14T20:11:12.888Z,100.00
2022-10-14T20:13:40.828Z,100.00
2022-10-14T20:16:10.305Z,100.00
2022-10-14T20:18:38.053Z,100.00
2022-10-14T20:21:08.533Z,100.00
2022-10-14T20:23:38.192Z,100.00
2022-10-14T20:26:07.462Z,100.00
2022-10-14T20:28:36.063Z,100.00
2022-10-14T20:31:04.078Z,100.00
2022-10-14T20:33:32.571Z,100.00
2022-10-14T20:36:01.010Z,100.00
2022-10-14T20:38:30.284Z,100.00
2022-10-14T20:41:04.387Z,100.00
2022-10-14T20:43:32.117Z,100.00
2022-10-14T20:45:59.869Z,100.00
2022-10-14T20:48:27.655Z,100.00
2022-10-14T20:50:55.333Z,100.00
2022-10-14T20:53:23.333Z,100.00
2022-10-14T20:55:52.637Z,100.00
2022-10-14T20:58:20.907Z,100.00
2022-10-14T21:00:48.604Z,100.00
2022-10-14T21:03:16.380Z,100.00
2022-10-14T21:05:44.046Z,100.00
2022-10-14T21:08:11.716Z,100.00
2022-10-14T21:10:39.464Z,100.00
2022-10-14T21:13:08.543Z,100.00
2022-10-14T21:15:36.238Z,100.00
2022-10-14T21:18:03.917Z,100.00
2022-10-14T21:20:31.648Z,100.00
2022-10-14T21:22:59.320Z,100.00
2022-10-14T21:25:27.021Z,100.00
2022-10-14T21:27:54.723Z,100.00
2022-10-14T21:30:23.810Z,100.00
2022-10-14T21:32:51.578Z,100.00
2022-10-14T21:35:19.285Z,100.00
2022-10-14T21:37:46.979Z,100.00
2022-10-14T21:40:15.438Z,100.00
2022-10-14T21:42:43.123Z,100.00
2022-10-14T21:45:11.312Z,100.00
2022-10-14T21:47:40.599Z,100.00
2022-10-14T21:50:08.964Z,100.00
2022-10-14T21:52:36.609Z,100.00
2022-10-14T21:55:04.731Z,100.00
2022-10-14T21:57:32.410Z,100.00
2022-10-14T22:00:00.081Z,100.00
2022-10-14T22:02:27.739Z,100.00
2022-10-14T22:04:56.782Z,100.00
2022-10-14T22:07:24.877Z,100.00
2022-10-14T22:09:52.942Z,100.00
2022-10-14T22:12:20.590Z,100.00
2022-10-14T22:14:48.272Z,100.00
2022-10-14T22:17:16.123Z,100.00
2022-10-14T22:19:43.748Z,100.00
2022-10-14T22:22:12.827Z,100.00
2022-10-14T22:24:40.486Z,100.00
2022-10-14T22:27:08.154Z,100.00
2022-10-14T22:29:35.799Z,100.00
2022-10-14T22:32:03.473Z,100.00
2022-10-14T22:34:31.141Z,100.00
2022-10-14T22:36:59.477Z,100.00
2022-10-14T22:39:28.491Z,100.00
2022-10-14T22:41:56.147Z,100.00
2022-10-14T22:44:23.820Z,100.00
2022-10-14T22:46:51.474Z,100.00
2022-10-14T22:49:19.139Z,100.00
2022-10-14T22:51:47.184Z,100.00
2022-10-14T22:54:14.929Z,100.00
2022-10-14T22:56:43.951Z,100.00
2022-10-14T22:59:12.634Z,100.00
2022-10-14T23:01:41.508Z,100.00
2022-10-14T23:04:09.742Z,100.00
2022-10-14T23:06:37.814Z,100.00
2022-10-14T23:09:05.628Z,100.00
2022-10-14T23:11:37.461Z,100.00
2022-10-14T23:14:07.617Z,100.00
2022-10-14T23:16:35.739Z,100.00
2022-10-14T23:19:03.543Z,100.00
2022-10-14T23:21:33.034Z,100.00
2022-10-14T23:24:03.758Z,100.00
2022-10-14T23:26:34.395Z,100.00
2022-10-14T23:29:04.008Z,100.00
2022-10-14T23:31:35.331Z,100.00
2022-10-14T23:34:05.093Z,100.00
2022-10-14T23:36:33.482Z,100.00
2022-10-14T23:39:01.138Z,100.00
2022-10-14T23:41:29.003Z,100.00
2022-10-14T23:43:56.872Z,100.00
2022-10-14T23:46:25.431Z,100.00
2022-10-14T23:49:06.741Z,100.00
2022-10-14T23:51:35.953Z,100.00
2022-10-14T23:54:04.297Z,100.00
2022-10-14T23:56:32.050Z,100.00
2022-10-14T23:58:59.710Z,100.00
